createdAt,value
2023-09-19T00:00:40.506Z,16.37
2023-09-19T00:03:06.827Z,16.39
2023-09-19T00:05:33.858Z,16.18
2023-09-19T00:08:00.053Z,16.17
2023-09-19T00:10:27.802Z,16.13
2023-09-19T00:12:54.040Z,16.05
2023-09-19T00:15:20.236Z,15.99
2023-09-19T00:17:46.570Z,15.88
2023-09-19T00:20:12.894Z,15.86
2023-09-19T00:22:39.124Z,15.91
2023-09-19T00:25:07.848Z,15.84
2023-09-19T00:27:34.044Z,15.78
2023-09-19T00:30:00.271Z,15.77
2023-09-19T00:32:27.636Z,15.70
2023-09-19T00:34:54.007Z,15.65
2023-09-19T00:37:23.079Z,15.60
2023-09-19T00:39:49.516Z,15.57
2023-09-19T00:42:16.256Z,15.66
2023-09-19T00:44:42.471Z,15.63
2023-09-19T00:47:08.909Z,15.64
2023-09-19T00:49:35.295Z,15.61
2023-09-19T00:52:01.499Z,15.62
2023-09-19T00:54:27.695Z,15.62
2023-09-19T00:56:53.905Z,15.57
2023-09-19T00:59:20.327Z,15.64
2023-09-19T01:01:46.949Z,15.55
2023-09-19T01:04:13.379Z,15.66
2023-09-19T01:06:39.751Z,15.58
2023-09-19T01:09:09.006Z,15.55
2023-09-19T01:11:35.210Z,15.44
2023-09-19T01:14:01.406Z,15.45
2023-09-19T01:16:27.715Z,15.39
2023-09-19T01:18:55.276Z,15.40
2023-09-19T01:21:21.453Z,15.41
2023-09-19T01:23:47.729Z,15.33
2023-09-19T01:26:16.072Z,15.37
2023-09-19T01:28:42.662Z,15.35
2023-09-19T01:31:09.363Z,15.29
2023-09-19T01:33:36.659Z,15.30
2023-09-19T01:36:02.867Z,15.26
2023-09-19T01:38:29.109Z,15.33
2023-09-19T01:40:55.402Z,15.31
2023-09-19T01:43:21.813Z,15.37
2023-09-19T01:45:48.133Z,15.32
2023-09-19T01:48:14.547Z,15.29
2023-09-19T01:50:40.786Z,15.31
2023-09-19T01:53:06.958Z,15.34
2023-09-19T01:55:33.210Z,15.31
2023-09-19T01:57:59.402Z,15.30
2023-09-19T02:00:25.594Z,15.21
2023-09-19T02:02:51.946Z,15.25
2023-09-19T02:05:18.205Z,15.27
2023-09-19T02:07:44.444Z,15.28
2023-09-19T02:10:10.715Z,15.16
2023-09-19T02:15:21.882Z,15.16
2023-09-19T02:17:48.249Z,15.20
2023-09-19T02:20:14.458Z,15.22
2023-09-19T02:22:40.658Z,15.14
2023-09-19T02:25:06.965Z,15.15
2023-09-19T02:27:33.229Z,15.18
2023-09-19T02:29:59.636Z,15.16
2023-09-19T02:32:26.037Z,15.17
2023-09-19T02:34:52.361Z,15.11
2023-09-19T02:37:18.640Z,15.14
2023-09-19T02:39:44.951Z,15.10
2023-09-19T02:42:11.162Z,15.06
2023-09-19T02:44:37.348Z,15.09
2023-09-19T02:47:03.988Z,15.16
2023-09-19T02:49:30.469Z,15.16
2023-09-19T02:51:56.673Z,15.29
2023-09-19T02:57:06.830Z,15.12
2023-09-19T02:59:33.054Z,15.11
2023-09-19T03:01:59.478Z,15.07
2023-09-19T03:04:25.840Z,15.04
2023-09-19T03:06:52.113Z,15.09
2023-09-19T03:09:20.796Z,14.97
2023-09-19T03:11:47.023Z,14.99
2023-09-19T03:14:13.308Z,15.04
2023-09-19T03:16:39.657Z,14.97
2023-09-19T03:19:07.123Z,14.87
2023-09-19T03:21:33.368Z,14.95
2023-09-19T03:23:59.740Z,15.03
2023-09-19T03:26:25.962Z,14.94
2023-09-19T03:28:52.232Z,14.96
2023-09-19T03:31:18.528Z,14.94
2023-09-19T03:33:45.916Z,14.93
2023-09-19T03:36:12.122Z,14.86
2023-09-19T03:38:38.332Z,14.82
2023-09-19T03:41:04.678Z,14.84
2023-09-19T03:43:30.975Z,14.75
2023-09-19T03:45:57.208Z,14.76
2023-09-19T03:48:23.463Z,14.77
2023-09-19T03:50:49.845Z,14.77
2023-09-19T03:53:16.032Z,14.74
2023-09-19T03:55:42.250Z,14.76
2023-09-19T03:58:08.573Z,14.64
2023-09-19T04:00:35.944Z,14.63
2023-09-19T04:03:04.055Z,14.60
2023-09-19T04:05:30.337Z,14.59
2023-09-19T04:07:56.575Z,14.62
2023-09-19T04:10:22.810Z,14.60
2023-09-19T04:20:55.747Z,14.52
2023-09-19T04:23:21.973Z,14.56
2023-09-19T04:25:48.296Z,14.56
2023-09-19T04:28:17.608Z,14.52
2023-09-19T04:30:43.875Z,14.56
2023-09-19T04:33:10.220Z,14.56
2023-09-19T04:35:40.710Z,14.54
2023-09-19T04:38:06.914Z,14.48
2023-09-19T04:40:33.157Z,14.46
2023-09-19T04:42:59.366Z,14.52
2023-09-19T04:45:25.688Z,14.48
2023-09-19T04:47:52.190Z,14.39
2023-09-19T04:50:18.674Z,14.55
2023-09-19T04:52:49.532Z,14.58
2023-09-19T04:55:15.777Z,14.52
2023-09-19T04:57:42.004Z,14.37
2023-09-19T05:00:08.163Z,14.33
2023-09-19T05:02:35.614Z,14.43
2023-09-19T05:05:01.957Z,14.46
2023-09-19T05:07:28.370Z,14.48
2023-09-19T05:09:54.631Z,14.29
2023-09-19T05:12:21.138Z,14.29
2023-09-19T05:14:47.485Z,14.34
2023-09-19T05:17:13.918Z,14.36
2023-09-19T05:19:40.248Z,14.31
2023-09-19T05:22:06.450Z,14.32
2023-09-19T05:24:32.623Z,14.31
2023-09-19T05:26:58.805Z,14.23
2023-09-19T05:29:25.020Z,14.25
2023-09-19T05:31:51.405Z,14.24
2023-09-19T05:34:17.788Z,14.30
2023-09-19T05:36:44.004Z,14.22
2023-09-19T05:39:10.246Z,14.24
2023-09-19T05:41:36.525Z,14.24
2023-09-19T05:44:04.261Z,14.27
2023-09-19T05:46:30.655Z,14.35
2023-09-19T05:48:56.920Z,14.36
2023-09-19T05:51:23.108Z,14.38
2023-09-19T05:53:49.648Z,14.39
2023-09-19T05:56:15.809Z,14.44
2023-09-19T05:58:42.268Z,14.41
2023-09-19T06:01:08.577Z,14.50
2023-09-19T06:03:42.857Z,14.57
2023-09-19T06:06:09.448Z,14.56
2023-09-19T06:08:39.886Z,14.62
2023-09-19T06:11:06.187Z,14.72
2023-09-19T06:13:32.613Z,14.87
2023-09-19T06:16:05.122Z,14.85
2023-09-19T06:18:31.375Z,14.95
2023-09-19T06:21:00.170Z,15.04
2023-09-19T06:23:41.903Z,15.03
2023-09-19T06:29:13.184Z,15.14
2023-09-19T06:34:37.757Z,15.20
2023-09-19T06:39:50.216Z,15.21
2023-09-19T06:42:21.191Z,15.25
2023-09-19T06:53:35.046Z,15.38
2023-09-19T06:59:03.714Z,15.45
2023-09-19T07:21:23.904Z,15.80
2023-09-19T07:23:40.661Z,15.84
2023-09-19T07:26:07.340Z,15.83
2023-09-19T07:34:07.626Z,15.96
2023-09-19T07:39:23.306Z,16.05
2023-09-19T07:50:03.725Z,16.18
2023-09-19T07:52:29.990Z,16.31
2023-09-19T07:54:56.187Z,16.34
2023-09-19T07:57:22.378Z,16.34
2023-09-19T07:59:48.521Z,16.34
2023-09-19T08:02:14.719Z,16.44
2023-09-19T08:04:41.221Z,16.47
2023-09-19T08:07:07.477Z,16.43
2023-09-19T08:09:33.656Z,16.49
2023-09-19T08:11:59.793Z,16.51
2023-09-19T08:14:25.947Z,16.51
2023-09-19T08:16:52.421Z,16.61
2023-09-19T08:19:18.853Z,16.64
2023-09-19T08:21:44.998Z,16.73
2023-09-19T08:24:11.169Z,16.74
2023-09-19T08:26:37.364Z,16.81
2023-09-19T08:31:29.788Z,17.14
2023-09-19T08:33:56.187Z,17.17
2023-09-19T08:36:22.370Z,17.23
2023-09-19T08:38:48.607Z,17.14
2023-09-19T08:41:14.817Z,17.14
2023-09-19T08:43:41.248Z,17.01
2023-09-19T08:46:07.665Z,17.17
2023-09-19T08:48:33.830Z,17.16
2023-09-19T08:51:00.008Z,17.13
2023-09-19T08:53:26.162Z,17.07
2023-09-19T08:55:52.342Z,17.25
2023-09-19T08:58:18.576Z,17.46
2023-09-19T09:00:44.751Z,17.47
2023-09-19T09:03:11.001Z,17.58
2023-09-19T09:05:37.258Z,17.65
2023-09-19T09:08:03.481Z,17.58
2023-09-19T09:10:29.686Z,17.64
2023-09-19T09:12:55.835Z,17.71
2023-09-19T09:15:22.011Z,17.75
2023-09-19T09:17:48.259Z,17.79
2023-09-19T09:20:14.495Z,17.79
2023-09-19T09:22:40.701Z,17.71
2023-09-19T09:25:06.890Z,17.76
2023-09-19T09:27:33.176Z,17.88
2023-09-19T09:29:59.560Z,18.12
2023-09-19T09:32:25.766Z,18.31
2023-09-19T09:34:52.187Z,18.33
2023-09-19T09:37:18.367Z,18.41
2023-09-19T09:39:44.531Z,18.54
2023-09-19T09:42:10.673Z,18.48
2023-09-19T09:44:37.064Z,18.46
2023-09-19T09:47:03.274Z,18.37
2023-09-19T09:49:29.524Z,18.38
2023-09-19T09:51:55.691Z,18.53
2023-09-19T09:54:21.867Z,18.51
2023-09-19T09:56:48.024Z,18.60
2023-09-19T09:59:14.185Z,18.52
2023-09-19T10:01:40.467Z,18.64
2023-09-19T10:04:06.838Z,18.56
2023-09-19T10:06:33.022Z,18.53
2023-09-19T10:08:59.181Z,18.74
2023-09-19T10:11:25.361Z,18.73
2023-09-19T10:13:51.554Z,18.83
2023-09-19T10:16:17.776Z,18.79
2023-09-19T10:18:43.967Z,18.97
2023-09-19T10:21:10.246Z,19.12
2023-09-19T10:23:36.391Z,19.23
2023-09-19T10:26:02.620Z,19.29
2023-09-19T10:28:28.871Z,19.20
2023-09-19T10:33:39.198Z,19.38
2023-09-19T10:36:05.654Z,19.36
2023-09-19T10:38:31.783Z,19.40
2023-09-19T10:40:58.081Z,19.48
2023-09-19T10:43:24.283Z,19.57
2023-09-19T10:45:50.532Z,19.29
2023-09-19T10:48:16.893Z,19.28
2023-09-19T10:50:43.067Z,19.36
2023-09-19T10:55:53.232Z,19.86
2023-09-19T10:58:19.525Z,19.70
2023-09-19T11:00:45.681Z,19.59
2023-09-19T11:11:36.542Z,19.64
2023-09-19T11:14:02.874Z,19.60
2023-09-19T11:16:29.112Z,19.49
2023-09-19T11:18:55.616Z,19.50
2023-09-19T11:24:05.689Z,19.81
2023-09-19T11:26:31.835Z,19.86
2023-09-19T11:28:58.148Z,19.95
2023-09-19T11:31:24.486Z,19.83
2023-09-19T11:33:50.618Z,19.56
2023-09-19T11:36:17.046Z,19.64
2023-09-19T11:38:43.526Z,19.52
2023-09-19T11:41:09.786Z,19.52
2023-09-19T11:43:36.207Z,19.53
2023-09-19T11:46:02.518Z,19.57
2023-09-19T11:48:28.859Z,19.76
2023-09-19T11:50:55.074Z,19.89
2023-09-19T11:53:21.231Z,20.02
2023-09-19T11:55:47.497Z,20.16
2023-09-19T11:58:13.816Z,20.24
2023-09-19T12:06:20.568Z,20.24
2023-09-19T12:14:27.384Z,20.26
2023-09-19T12:16:53.705Z,20.10
2023-09-19T12:19:19.912Z,20.27
2023-09-19T12:21:46.070Z,20.41
2023-09-19T12:24:12.360Z,20.32
2023-09-19T12:26:38.517Z,20.21
2023-09-19T12:29:04.698Z,20.23
2023-09-19T12:31:30.887Z,20.39
2023-09-19T12:33:57.290Z,20.31
2023-09-19T12:36:23.521Z,20.33
2023-09-19T12:38:49.747Z,20.47
2023-09-19T12:41:17.937Z,20.48
2023-09-19T12:43:44.410Z,20.39
2023-09-19T12:46:11.906Z,20.51
2023-09-19T12:48:38.253Z,20.52
2023-09-19T12:51:04.415Z,20.34
2023-09-19T12:53:30.738Z,20.40
2023-09-19T12:55:57.139Z,20.39
2023-09-19T12:58:23.439Z,20.17
2023-09-19T13:00:49.713Z,20.30
2023-09-19T13:03:16.092Z,20.32
2023-09-19T13:05:42.321Z,20.19
2023-09-19T13:08:08.498Z,20.18
2023-09-19T13:10:34.710Z,20.29
2023-09-19T13:13:00.861Z,20.32
2023-09-19T13:15:27.040Z,20.45
2023-09-19T13:17:53.343Z,20.47
2023-09-19T13:20:21.570Z,20.57
2023-09-19T13:22:48.865Z,20.55
2023-09-19T13:25:15.210Z,20.75
2023-09-19T13:27:41.442Z,20.72
2023-09-19T13:30:07.690Z,20.63
2023-09-19T13:32:34.047Z,20.69
2023-09-19T13:35:00.326Z,20.74
2023-09-19T13:37:26.509Z,20.89
2023-09-19T13:39:52.720Z,20.89
2023-09-19T13:42:18.892Z,20.73
2023-09-19T13:44:45.091Z,20.54
2023-09-19T13:47:11.459Z,20.50
2023-09-19T13:49:37.834Z,20.40
2023-09-19T13:52:04.006Z,20.50
2023-09-19T13:54:30.148Z,20.62
2023-09-19T13:56:56.299Z,20.77
2023-09-19T13:59:22.499Z,20.68
2023-09-19T14:01:48.996Z,20.67
2023-09-19T14:04:15.178Z,20.82
2023-09-19T14:06:41.365Z,20.83
2023-09-19T14:09:07.537Z,20.81
2023-09-19T14:11:33.666Z,20.91
2023-09-19T14:13:59.850Z,20.77
2023-09-19T14:53:22.441Z,21.02
2023-09-19T14:55:48.858Z,20.81
2023-09-19T14:58:15.038Z,20.82
2023-09-19T15:00:41.310Z,20.78
2023-09-19T15:03:07.659Z,20.89
2023-09-19T15:05:34.078Z,20.88
2023-09-19T15:08:00.521Z,21.01
2023-09-19T15:10:26.784Z,21.24
2023-09-19T15:12:52.946Z,21.18
2023-09-19T15:15:19.091Z,21.20
2023-09-19T15:17:45.305Z,21.19
2023-09-19T15:20:12.666Z,21.11
2023-09-19T15:22:41.429Z,21.18
2023-09-19T15:25:07.993Z,21.05
2023-09-19T15:27:36.585Z,20.88
2023-09-19T15:30:02.953Z,20.85
2023-09-19T15:32:29.313Z,20.83
2023-09-19T15:34:55.780Z,20.77
2023-09-19T15:37:22.094Z,20.69
2023-09-19T15:39:48.427Z,20.70
2023-09-19T15:42:14.668Z,20.58
2023-09-19T15:44:40.808Z,20.52
2023-09-19T16:01:18.296Z,20.18
2023-09-19T16:03:44.659Z,20.19
2023-09-19T16:06:10.824Z,20.18
2023-09-19T16:08:36.968Z,20.12
2023-09-19T16:11:03.138Z,20.04
2023-09-19T16:13:29.325Z,20.22
2023-09-19T16:15:55.561Z,20.14
2023-09-19T16:18:21.863Z,20.19
2023-09-19T16:20:48.179Z,20.14
2023-09-19T16:23:14.476Z,20.15
2023-09-19T16:25:40.666Z,20.29
2023-09-19T16:28:06.827Z,20.24
2023-09-19T16:30:32.992Z,20.27
2023-09-19T16:32:59.151Z,20.11
2023-09-19T16:35:25.316Z,20.00
2023-09-19T16:37:51.580Z,19.75
2023-09-19T16:40:17.782Z,19.63
2023-09-19T16:42:43.929Z,19.57
2023-09-19T16:45:10.116Z,19.50
2023-09-19T16:47:36.344Z,19.47
2023-09-19T16:50:02.598Z,19.34
2023-09-19T16:52:28.951Z,19.38
2023-09-19T16:54:55.105Z,19.46
2023-09-19T16:57:21.313Z,19.18
2023-09-19T16:59:47.469Z,19.12
2023-09-19T17:02:13.785Z,19.11
2023-09-19T17:04:40.055Z,18.99
2023-09-19T17:07:06.281Z,18.77
2023-09-19T17:09:32.444Z,18.74
2023-09-19T17:11:58.603Z,18.69
2023-09-19T17:14:24.785Z,18.57
2023-09-19T17:16:51.066Z,18.54
2023-09-19T17:19:17.234Z,18.51
2023-09-19T17:21:43.403Z,18.51
2023-09-19T17:24:09.664Z,18.47
2023-09-19T17:26:35.825Z,18.45
2023-09-19T17:29:02.037Z,18.38
2023-09-19T17:31:28.233Z,18.34
2023-09-19T17:33:54.423Z,18.30
2023-09-19T17:36:20.572Z,18.26
2023-09-19T17:38:46.818Z,18.25
2023-09-19T17:41:13.000Z,18.21
2023-09-19T17:43:39.274Z,18.26
2023-09-19T17:46:05.558Z,18.27
2023-09-19T17:48:31.760Z,18.26
2023-09-19T17:50:57.914Z,18.23
2023-09-19T17:53:24.138Z,18.19
2023-09-19T17:55:50.480Z,18.19
2023-09-19T17:58:16.755Z,18.14
2023-09-19T18:03:35.626Z,18.14
2023-09-19T18:06:02.676Z,18.11
2023-09-19T18:08:31.606Z,18.09
2023-09-19T18:10:57.969Z,18.10
2023-09-19T18:13:25.322Z,18.12
2023-09-19T18:15:51.810Z,18.17
2023-09-19T18:18:21.045Z,18.16
2023-09-19T18:20:49.694Z,18.14
2023-09-19T18:23:16.378Z,18.17
2023-09-19T18:25:42.705Z,18.21
2023-09-19T18:28:21.356Z,18.26
2023-09-19T18:30:50.656Z,18.23
2023-09-19T18:34:06.145Z,18.27
2023-09-19T18:38:53.173Z,18.28
2023-09-19T18:41:23.161Z,18.31
2023-09-19T18:43:54.510Z,18.32
2023-09-19T18:49:11.233Z,18.37
2023-09-19T18:51:43.574Z,18.37
2023-09-19T18:54:14.042Z,18.33
2023-09-19T18:59:35.869Z,18.39
2023-09-19T19:05:01.056Z,18.46
2023-09-19T19:07:35.923Z,18.48
2023-09-19T19:10:03.312Z,18.40
2023-09-19T19:12:35.736Z,18.43
2023-09-19T19:15:03.444Z,18.35
2023-09-19T19:23:08.254Z,18.42
2023-09-19T19:28:29.354Z,18.27
2023-09-19T19:31:02.912Z,18.26
2023-09-19T19:33:32.129Z,18.25
2023-09-19T19:36:01.048Z,18.22
2023-09-19T19:38:33.608Z,18.21
2023-09-19T19:43:54.497Z,18.23
2023-09-19T19:46:20.794Z,18.16
2023-09-19T19:48:52.534Z,18.16
2023-09-19T19:51:21.150Z,18.16
2023-09-19T19:53:47.349Z,18.02
2023-09-19T19:56:15.646Z,18.07
2023-09-19T19:58:42.475Z,18.07
2023-09-19T20:01:17.777Z,18.06
2023-09-19T20:03:44.163Z,18.11
2023-09-19T20:06:12.713Z,17.98
2023-09-19T20:08:41.006Z,18.04
2023-09-19T20:11:16.883Z,17.97
2023-09-19T20:13:44.550Z,18.02
2023-09-19T20:16:12.685Z,18.07
2023-09-19T20:18:39.200Z,18.10
2023-09-19T20:21:05.575Z,18.08
2023-09-19T20:23:34.983Z,18.03
2023-09-19T20:26:05.195Z,18.02
2023-09-19T20:28:32.972Z,18.06
2023-09-19T20:31:02.756Z,18.01
2023-09-19T20:33:34.674Z,17.99
2023-09-19T20:36:03.077Z,18.00
2023-09-19T20:38:30.550Z,17.96
2023-09-19T20:40:57.031Z,17.90
2023-09-19T20:43:23.299Z,17.91
2023-09-19T20:45:49.656Z,17.86
2023-09-19T20:51:00.033Z,17.77
2023-09-19T20:53:26.289Z,17.81
2023-09-19T20:55:52.575Z,17.83
2023-09-19T20:58:19.058Z,17.78
2023-09-19T21:00:49.856Z,17.84
2023-09-19T21:03:20.413Z,17.88
2023-09-19T21:05:46.696Z,17.82
2023-09-19T21:08:13.322Z,17.73
2023-09-19T21:10:46.515Z,17.75
2023-09-19T21:13:16.406Z,17.76
2023-09-19T21:15:47.901Z,17.46
2023-09-19T21:18:18.141Z,17.76
2023-09-19T21:20:44.419Z,17.74
2023-09-19T21:23:12.957Z,17.72
2023-09-19T21:25:40.515Z,17.61
2023-09-19T21:28:06.726Z,17.64
2023-09-19T21:30:40.065Z,17.53
2023-09-19T21:33:07.453Z,17.57
2023-09-19T21:35:33.743Z,17.48
2023-09-19T21:37:59.968Z,17.48
2023-09-19T21:40:26.201Z,17.46
2023-09-19T21:42:52.409Z,17.40
2023-09-19T21:45:18.645Z,17.37
2023-09-19T21:47:44.947Z,17.39
2023-09-19T21:50:11.346Z,17.39
2023-09-19T21:52:37.541Z,17.35
2023-09-19T21:55:03.827Z,17.34
2023-09-19T21:57:30.082Z,17.28
2023-09-19T21:59:56.296Z,17.32
2023-09-19T22:02:22.849Z,17.27
2023-09-19T22:04:51.697Z,17.22
2023-09-19T22:07:18.327Z,17.15
2023-09-19T22:09:44.743Z,17.14
2023-09-19T22:12:11.037Z,17.18
2023-09-19T22:14:37.286Z,17.20
2023-09-19T22:17:04.701Z,17.16
2023-09-19T22:19:34.198Z,17.13
2023-09-19T22:22:03.395Z,17.16
2023-09-19T22:24:29.663Z,17.17
2023-09-19T22:26:58.040Z,17.20
2023-09-19T22:29:37.606Z,17.20
2023-09-19T22:32:15.564Z,17.19
2023-09-19T22:34:57.346Z,17.28
2023-09-19T22:37:25.058Z,17.35
2023-09-19T22:39:51.402Z,17.37
2023-09-19T22:42:17.776Z,17.33
2023-09-19T22:44:51.560Z,17.31
2023-09-19T22:47:20.949Z,17.34
2023-09-19T22:49:49.331Z,17.29
2023-09-19T22:52:15.572Z,17.34
2023-09-19T22:54:41.749Z,17.31
2023-09-19T22:57:07.945Z,17.35
2023-09-19T22:59:34.373Z,17.38
2023-09-19T23:02:00.730Z,17.38
2023-09-19T23:04:27.149Z,17.40
2023-09-19T23:06:53.856Z,17.48
2023-09-19T23:09:20.225Z,17.48
2023-09-19T23:11:47.737Z,17.56
2023-09-19T23:14:14.089Z,17.54
2023-09-19T23:16:40.290Z,17.57
2023-09-19T23:19:10.684Z,17.61
2023-09-19T23:21:37.025Z,17.71
2023-09-19T23:24:05.359Z,17.69
2023-09-19T23:26:32.837Z,17.78
2023-09-19T23:28:59.162Z,17.74
2023-09-19T23:31:25.418Z,17.75
2023-09-19T23:33:51.834Z,17.76
2023-09-19T23:36:20.033Z,17.77
2023-09-19T23:38:46.378Z,17.74
2023-09-19T23:41:16.968Z,17.83
2023-09-19T23:43:43.292Z,17.82
2023-09-19T23:46:11.127Z,17.84
2023-09-19T23:48:40.377Z,17.84
2023-09-19T23:51:09.275Z,17.84
2023-09-19T23:53:44.297Z,17.85
2023-09-19T23:56:19.129Z,17.91
2023-09-19T23:58:45.648Z,17.89
